sensor_id;sensor_type;location;lat;lon;timestamp;P1;durP1;ratioP1;P2;durP2;ratioP2
20480;SDS011;10399;50.754;3.366;2023-07-31T00:02:20;20.98;;;5.15;;
20480;SDS011;10399;50.754;3.366;2023-07-31T00:04:48;18.83;;;4.63;;
20480;SDS011;10399;50.754;3.366;2023-07-31T00:07:17;23.33;;;5.05;;
20480;SDS011;10399;50.754;3.366;2023-07-31T00:09:44;17.30;;;4.82;;
20480;SDS011;10399;50.754;3.366;2023-07-31T00:12:11;16.83;;;5.13;;
20480;SDS011;10399;50.754;3.366;2023-07-31T00:14:39;17.30;;;5.78;;
20480;SDS011;10399;50.754;3.366;2023-07-31T00:17:06;19.33;;;5.38;;
20480;SDS011;10399;50.754;3.366;2023-07-31T00:19:33;14.02;;;4.65;;
20480;SDS011;10399;50.754;3.366;2023-07-31T00:22:00;20.55;;;5.47;;
20480;SDS011;10399;50.754;3.366;2023-07-31T00:24:27;17.70;;;5.40;;
20480;SDS011;10399;50.754;3.366;2023-07-31T00:26:54;22.25;;;5.47;;
20480;SDS011;10399;50.754;3.366;2023-07-31T00:29:22;20.35;;;5.75;;
20480;SDS011;10399;50.754;3.366;2023-07-31T00:31:49;18.52;;;5.30;;
20480;SDS011;10399;50.754;3.366;2023-07-31T00:34:16;13.43;;;4.95;;
20480;SDS011;10399;50.754;3.366;2023-07-31T00:36:43;18.88;;;5.10;;
20480;SDS011;10399;50.754;3.366;2023-07-31T00:39:10;15.50;;;5.28;;
20480;SDS011;10399;50.754;3.366;2023-07-31T00:41:38;14.98;;;5.40;;
20480;SDS011;10399;50.754;3.366;2023-07-31T00:44:05;15.25;;;4.88;;
20480;SDS011;10399;50.754;3.366;2023-07-31T00:46:32;20.80;;;5.53;;
20480;SDS011;10399;50.754;3.366;2023-07-31T00:49:01;13.18;;;4.60;;
20480;SDS011;10399;50.754;3.366;2023-07-31T00:51:28;21.23;;;4.90;;
20480;SDS011;10399;50.754;3.366;2023-07-31T00:53:56;16.02;;;5.18;;
20480;SDS011;10399;50.754;3.366;2023-07-31T00:56:23;17.77;;;5.82;;
20480;SDS011;10399;50.754;3.366;2023-07-31T00:58:52;20.48;;;5.95;;
20480;SDS011;10399;50.754;3.366;2023-07-31T01:01:19;16.58;;;5.25;;
20480;SDS011;10399;50.754;3.366;2023-07-31T01:03:46;16.95;;;4.65;;
20480;SDS011;10399;50.754;3.366;2023-07-31T01:08:58;17.77;;;5.15;;
20480;SDS011;10399;50.754;3.366;2023-07-31T01:11:30;16.27;;;5.35;;
20480;SDS011;10399;50.754;3.366;2023-07-31T01:13:59;18.42;;;4.28;;
20480;SDS011;10399;50.754;3.366;2023-07-31T01:16:27;19.85;;;5.15;;
20480;SDS011;10399;50.754;3.366;2023-07-31T01:18:54;13.07;;;5.25;;
20480;SDS011;10399;50.754;3.366;2023-07-31T01:24:20;19.73;;;5.00;;
20480;SDS011;10399;50.754;3.366;2023-07-31T01:27:02;14.15;;;4.90;;
20480;SDS011;10399;50.754;3.366;2023-07-31T01:29:38;21.23;;;5.45;;
20480;SDS011;10399;50.754;3.366;2023-07-31T01:32:17;19.27;;;5.00;;
20480;SDS011;10399;50.754;3.366;2023-07-31T01:34:46;15.48;;;5.38;;
20480;SDS011;10399;50.754;3.366;2023-07-31T01:37:14;17.77;;;5.18;;
20480;SDS011;10399;50.754;3.366;2023-07-31T01:39:41;11.60;;;4.38;;
20480;SDS011;10399;50.754;3.366;2023-07-31T01:42:08;20.75;;;5.82;;
20480;SDS011;10399;50.754;3.366;2023-07-31T01:44:35;19.95;;;5.03;;
20480;SDS011;10399;50.754;3.366;2023-07-31T01:47:03;14.60;;;5.38;;
20480;SDS011;10399;50.754;3.366;2023-07-31T01:49:30;15.43;;;5.13;;
20480;SDS011;10399;50.754;3.366;2023-07-31T01:51:58;18.60;;;5.18;;
20480;SDS011;10399;50.754;3.366;2023-07-31T01:54:25;15.80;;;5.65;;
20480;SDS011;10399;50.754;3.366;2023-07-31T01:56:52;14.38;;;4.95;;
20480;SDS011;10399;50.754;3.366;2023-07-31T01:59:19;15.93;;;5.50;;
20480;SDS011;10399;50.754;3.366;2023-07-31T02:01:46;16.20;;;5.05;;
20480;SDS011;10399;50.754;3.366;2023-07-31T02:04:13;17.23;;;5.40;;
20480;SDS011;10399;50.754;3.366;2023-07-31T02:06:41;18.98;;;5.38;;
20480;SDS011;10399;50.754;3.366;2023-07-31T02:09:08;17.70;;;5.25;;
20480;SDS011;10399;50.754;3.366;2023-07-31T02:11:35;14.65;;;5.93;;
20480;SDS011;10399;50.754;3.366;2023-07-31T02:14:02;15.20;;;5.85;;
20480;SDS011;10399;50.754;3.366;2023-07-31T02:16:29;14.15;;;5.68;;
20480;SDS011;10399;50.754;3.366;2023-07-31T02:18:57;16.70;;;5.90;;
20480;SDS011;10399;50.754;3.366;2023-07-31T02:21:24;16.05;;;5.80;;
20480;SDS011;10399;50.754;3.366;2023-07-31T02:23:51;14.95;;;6.25;;
20480;SDS011;10399;50.754;3.366;2023-07-31T02:26:18;16.70;;;5.97;;
20480;SDS011;10399;50.754;3.366;2023-07-31T02:28:45;17.60;;;5.90;;
20480;SDS011;10399;50.754;3.366;2023-07-31T02:31:12;16.90;;;5.28;;
20480;SDS011;10399;50.754;3.366;2023-07-31T02:33:39;12.93;;;5.80;;
20480;SDS011;10399;50.754;3.366;2023-07-31T02:36:06;11.45;;;5.47;;
20480;SDS011;10399;50.754;3.366;2023-07-31T02:38:33;12.05;;;6.00;;
20480;SDS011;10399;50.754;3.366;2023-07-31T02:41:00;14.15;;;5.90;;
20480;SDS011;10399;50.754;3.366;2023-07-31T02:43:28;13.68;;;5.70;;
20480;SDS011;10399;50.754;3.366;2023-07-31T02:45:55;13.73;;;5.70;;
20480;SDS011;10399;50.754;3.366;2023-07-31T02:48:22;17.25;;;6.43;;
20480;SDS011;10399;50.754;3.366;2023-07-31T02:50:49;14.40;;;6.05;;
20480;SDS011;10399;50.754;3.366;2023-07-31T02:53:16;13.98;;;5.72;;
20480;SDS011;10399;50.754;3.366;2023-07-31T02:55:44;18.23;;;6.43;;
20480;SDS011;10399;50.754;3.366;2023-07-31T02:58:11;12.57;;;5.30;;
20480;SDS011;10399;50.754;3.366;2023-07-31T03:00:44;17.35;;;5.95;;
20480;SDS011;10399;50.754;3.366;2023-07-31T03:03:11;14.27;;;5.68;;
20480;SDS011;10399;50.754;3.366;2023-07-31T03:05:38;13.65;;;4.30;;
20480;SDS011;10399;50.754;3.366;2023-07-31T03:08:06;12.13;;;4.65;;
20480;SDS011;10399;50.754;3.366;2023-07-31T03:10:34;13.18;;;3.92;;
20480;SDS011;10399;50.754;3.366;2023-07-31T03:13:01;11.68;;;4.38;;
20480;SDS011;10399;50.754;3.366;2023-07-31T03:15:29;11.23;;;4.10;;
20480;SDS011;10399;50.754;3.366;2023-07-31T03:17:56;9.77;;;4.38;;
20480;SDS011;10399;50.754;3.366;2023-07-31T03:20:24;9.35;;;4.32;;
20480;SDS011;10399;50.754;3.366;2023-07-31T03:22:52;9.77;;;4.60;;
20480;SDS011;10399;50.754;3.366;2023-07-31T03:25:19;12.13;;;4.80;;
20480;SDS011;10399;50.754;3.366;2023-07-31T03:27:46;10.50;;;4.50;;
20480;SDS011;10399;50.754;3.366;2023-07-31T03:30:13;11.07;;;4.80;;
20480;SDS011;10399;50.754;3.366;2023-07-31T03:32:40;13.93;;;4.88;;
20480;SDS011;10399;50.754;3.366;2023-07-31T03:35:07;11.77;;;4.90;;
20480;SDS011;10399;50.754;3.366;2023-07-31T03:37:35;15.10;;;5.32;;
20480;SDS011;10399;50.754;3.366;2023-07-31T03:40:02;14.57;;;5.93;;
20480;SDS011;10399;50.754;3.366;2023-07-31T03:42:30;14.30;;;6.22;;
20480;SDS011;10399;50.754;3.366;2023-07-31T03:44:58;14.52;;;5.85;;
20480;SDS011;10399;50.754;3.366;2023-07-31T03:47:26;12.25;;;5.22;;
20480;SDS011;10399;50.754;3.366;2023-07-31T03:49:53;13.25;;;5.75;;
20480;SDS011;10399;50.754;3.366;2023-07-31T03:52:20;13.18;;;5.65;;
20480;SDS011;10399;50.754;3.366;2023-07-31T03:54:47;16.23;;;5.43;;
20480;SDS011;10399;50.754;3.366;2023-07-31T03:57:14;13.63;;;5.55;;
20480;SDS011;10399;50.754;3.366;2023-07-31T03:59:41;15.80;;;6.30;;
20480;SDS011;10399;50.754;3.366;2023-07-31T04:02:09;17.95;;;5.78;;
20480;SDS011;10399;50.754;3.366;2023-07-31T04:04:36;9.50;;;5.80;;
20480;SDS011;10399;50.754;3.366;2023-07-31T04:07:06;13.07;;;5.80;;
20480;SDS011;10399;50.754;3.366;2023-07-31T04:09:33;12.07;;;5.35;;
20480;SDS011;10399;50.754;3.366;2023-07-31T04:12:00;10.27;;;4.93;;
20480;SDS011;10399;50.754;3.366;2023-07-31T04:14:27;15.02;;;5.20;;
20480;SDS011;10399;50.754;3.366;2023-07-31T04:16:54;13.93;;;5.10;;
20480;SDS011;10399;50.754;3.366;2023-07-31T04:19:21;10.90;;;5.68;;
20480;SDS011;10399;50.754;3.366;2023-07-31T04:21:48;9.27;;;4.80;;
20480;SDS011;10399;50.754;3.366;2023-07-31T04:24:15;10.18;;;4.88;;
20480;SDS011;10399;50.754;3.366;2023-07-31T04:26:50;6.97;;;4.53;;
20480;SDS011;10399;50.754;3.366;2023-07-31T04:29:18;9.88;;;5.00;;
20480;SDS011;10399;50.754;3.366;2023-07-31T04:31:45;9.05;;;4.28;;
20480;SDS011;10399;50.754;3.366;2023-07-31T04:34:14;11.27;;;4.80;;
20480;SDS011;10399;50.754;3.366;2023-07-31T04:36:41;8.05;;;4.55;;
20480;SDS011;10399;50.754;3.366;2023-07-31T04:39:08;10.60;;;4.30;;
20480;SDS011;10399;50.754;3.366;2023-07-31T04:41:35;10.48;;;5.20;;
20480;SDS011;10399;50.754;3.366;2023-07-31T04:44:02;11.30;;;5.25;;
20480;SDS011;10399;50.754;3.366;2023-07-31T04:46:30;9.65;;;5.30;;
20480;SDS011;10399;50.754;3.366;2023-07-31T04:48:57;9.02;;;5.22;;
20480;SDS011;10399;50.754;3.366;2023-07-31T04:51:24;9.45;;;4.78;;
20480;SDS011;10399;50.754;3.366;2023-07-31T04:53:51;11.38;;;4.55;;
20480;SDS011;10399;50.754;3.366;2023-07-31T04:56:18;11.18;;;4.75;;
20480;SDS011;10399;50.754;3.366;2023-07-31T04:58:46;10.43;;;5.00;;
20480;SDS011;10399;50.754;3.366;2023-07-31T05:01:13;10.00;;;4.55;;
20480;SDS011;10399;50.754;3.366;2023-07-31T05:03:41;13.93;;;4.95;;
20480;SDS011;10399;50.754;3.366;2023-07-31T05:06:08;8.60;;;4.28;;
20480;SDS011;10399;50.754;3.366;2023-07-31T05:08:35;8.45;;;3.95;;
20480;SDS011;10399;50.754;3.366;2023-07-31T05:11:02;11.93;;;4.45;;
20480;SDS011;10399;50.754;3.366;2023-07-31T05:13:29;15.95;;;4.90;;
20480;SDS011;10399;50.754;3.366;2023-07-31T05:15:56;9.90;;;4.72;;
20480;SDS011;10399;50.754;3.366;2023-07-31T05:18:28;9.50;;;4.30;;
20480;SDS011;10399;50.754;3.366;2023-07-31T05:20:56;11.63;;;4.63;;
20480;SDS011;10399;50.754;3.366;2023-07-31T05:23:23;10.00;;;4.55;;
20480;SDS011;10399;50.754;3.366;2023-07-31T05:25:50;8.35;;;4.15;;
20480;SDS011;10399;50.754;3.366;2023-07-31T05:28:18;11.57;;;4.07;;
20480;SDS011;10399;50.754;3.366;2023-07-31T05:30:45;7.65;;;4.10;;
20480;SDS011;10399;50.754;3.366;2023-07-31T05:33:12;11.98;;;4.50;;
20480;SDS011;10399;50.754;3.366;2023-07-31T05:35:40;9.00;;;4.30;;
20480;SDS011;10399;50.754;3.366;2023-07-31T05:38:07;13.88;;;4.70;;
20480;SDS011;10399;50.754;3.366;2023-07-31T05:40:34;8.15;;;4.05;;
20480;SDS011;10399;50.754;3.366;2023-07-31T05:43:02;12.27;;;4.63;;
20480;SDS011;10399;50.754;3.366;2023-07-31T05:45:29;10.93;;;4.07;;
20480;SDS011;10399;50.754;3.366;2023-07-31T05:47:56;10.57;;;3.92;;
20480;SDS011;10399;50.754;3.366;2023-07-31T05:50:23;11.27;;;4.22;;
20480;SDS011;10399;50.754;3.366;2023-07-31T05:52:50;9.82;;;4.20;;
20480;SDS011;10399;50.754;3.366;2023-07-31T05:55:17;13.68;;;4.10;;
20480;SDS011;10399;50.754;3.366;2023-07-31T05:57:44;9.18;;;3.83;;
20480;SDS011;10399;50.754;3.366;2023-07-31T06:00:12;8.43;;;4.25;;
20480;SDS011;10399;50.754;3.366;2023-07-31T06:02:40;10.60;;;4.10;;
20480;SDS011;10399;50.754;3.366;2023-07-31T06:05:07;7.63;;;3.92;;
20480;SDS011;10399;50.754;3.366;2023-07-31T06:07:37;8.57;;;3.88;;
20480;SDS011;10399;50.754;3.366;2023-07-31T06:10:04;12.15;;;4.45;;
20480;SDS011;10399;50.754;3.366;2023-07-31T06:12:32;15.68;;;4.35;;
20480;SDS011;10399;50.754;3.366;2023-07-31T06:15:02;9.60;;;3.80;;
20480;SDS011;10399;50.754;3.366;2023-07-31T06:17:30;12.07;;;4.40;;
20480;SDS011;10399;50.754;3.366;2023-07-31T06:19:57;10.48;;;3.90;;
20480;SDS011;10399;50.754;3.366;2023-07-31T06:22:24;13.80;;;4.05;;
20480;SDS011;10399;50.754;3.366;2023-07-31T06:24:51;9.68;;;3.65;;
20480;SDS011;10399;50.754;3.366;2023-07-31T06:27:19;7.07;;;3.72;;
20480;SDS011;10399;50.754;3.366;2023-07-31T06:29:46;6.82;;;3.60;;
20480;SDS011;10399;50.754;3.366;2023-07-31T06:32:14;6.78;;;3.67;;
20480;SDS011;10399;50.754;3.366;2023-07-31T06:34:42;11.52;;;3.83;;
20480;SDS011;10399;50.754;3.366;2023-07-31T06:37:09;8.45;;;3.35;;
20480;SDS011;10399;50.754;3.366;2023-07-31T06:39:36;6.88;;;3.28;;
20480;SDS011;10399;50.754;3.366;2023-07-31T06:42:04;7.85;;;3.42;;
20480;SDS011;10399;50.754;3.366;2023-07-31T06:44:31;10.88;;;3.70;;
20480;SDS011;10399;50.754;3.366;2023-07-31T06:46:58;7.82;;;3.83;;
20480;SDS011;10399;50.754;3.366;2023-07-31T06:49:26;11.35;;;3.53;;
20480;SDS011;10399;50.754;3.366;2023-07-31T06:51:53;8.32;;;3.10;;
20480;SDS011;10399;50.754;3.366;2023-07-31T06:54:20;9.80;;;3.95;;
20480;SDS011;10399;50.754;3.366;2023-07-31T06:56:47;9.98;;;3.15;;
20480;SDS011;10399;50.754;3.366;2023-07-31T06:59:15;7.60;;;3.35;;
20480;SDS011;10399;50.754;3.366;2023-07-31T07:01:43;6.97;;;3.17;;
20480;SDS011;10399;50.754;3.366;2023-07-31T07:04:10;8.85;;;3.70;;
20480;SDS011;10399;50.754;3.366;2023-07-31T07:06:38;8.32;;;3.35;;
20480;SDS011;10399;50.754;3.366;2023-07-31T07:09:06;8.27;;;2.88;;
20480;SDS011;10399;50.754;3.366;2023-07-31T07:11:34;9.48;;;3.30;;
20480;SDS011;10399;50.754;3.366;2023-07-31T07:14:01;7.55;;;3.42;;
20480;SDS011;10399;50.754;3.366;2023-07-31T07:16:29;9.45;;;3.25;;
20480;SDS011;10399;50.754;3.366;2023-07-31T07:18:56;8.65;;;3.35;;
20480;SDS011;10399;50.754;3.366;2023-07-31T07:21:30;8.45;;;2.85;;
20480;SDS011;10399;50.754;3.366;2023-07-31T07:23:58;6.97;;;3.10;;
20480;SDS011;10399;50.754;3.366;2023-07-31T07:26:26;8.50;;;3.40;;
20480;SDS011;10399;50.754;3.366;2023-07-31T07:28:53;6.43;;;3.50;;
20480;SDS011;10399;50.754;3.366;2023-07-31T07:31:20;9.48;;;3.88;;
20480;SDS011;10399;50.754;3.366;2023-07-31T07:33:48;7.85;;;3.15;;
20480;SDS011;10399;50.754;3.366;2023-07-31T07:36:15;9.57;;;3.65;;
20480;SDS011;10399;50.754;3.366;2023-07-31T07:38:43;5.50;;;3.00;;
20480;SDS011;10399;50.754;3.366;2023-07-31T07:41:11;8.05;;;3.08;;
20480;SDS011;10399;50.754;3.366;2023-07-31T07:43:38;7.30;;;3.00;;
20480;SDS011;10399;50.754;3.366;2023-07-31T07:46:07;4.88;;;2.63;;
20480;SDS011;10399;50.754;3.366;2023-07-31T07:48:34;7.40;;;3.00;;
20480;SDS011;10399;50.754;3.366;2023-07-31T07:51:02;7.18;;;2.90;;
20480;SDS011;10399;50.754;3.366;2023-07-31T07:53:32;6.07;;;3.22;;
20480;SDS011;10399;50.754;3.366;2023-07-31T07:56:03;5.97;;;3.22;;
20480;SDS011;10399;50.754;3.366;2023-07-31T07:58:30;7.70;;;2.90;;
20480;SDS011;10399;50.754;3.366;2023-07-31T08:00:57;10.98;;;2.75;;
20480;SDS011;10399;50.754;3.366;2023-07-31T08:03:25;6.82;;;3.45;;
20480;SDS011;10399;50.754;3.366;2023-07-31T08:05:52;6.75;;;3.40;;
20480;SDS011;10399;50.754;3.366;2023-07-31T08:08:25;5.63;;;3.03;;
20480;SDS011;10399;50.754;3.366;2023-07-31T08:10:52;5.93;;;3.03;;
20480;SDS011;10399;50.754;3.366;2023-07-31T08:13:21;8.35;;;3.20;;
20480;SDS011;10399;50.754;3.366;2023-07-31T08:15:48;8.77;;;3.40;;
20480;SDS011;10399;50.754;3.366;2023-07-31T08:18:15;7.95;;;3.63;;
20480;SDS011;10399;50.754;3.366;2023-07-31T08:20:44;9.07;;;3.90;;
20480;SDS011;10399;50.754;3.366;2023-07-31T08:23:11;10.50;;;3.88;;
20480;SDS011;10399;50.754;3.366;2023-07-31T08:25:38;14.25;;;4.53;;
20480;SDS011;10399;50.754;3.366;2023-07-31T08:28:06;7.43;;;4.00;;
20480;SDS011;10399;50.754;3.366;2023-07-31T08:30:33;6.32;;;3.63;;
20480;SDS011;10399;50.754;3.366;2023-07-31T08:33:01;10.32;;;3.47;;
20480;SDS011;10399;50.754;3.366;2023-07-31T08:35:29;8.43;;;3.53;;
20480;SDS011;10399;50.754;3.366;2023-07-31T08:37:56;8.80;;;3.97;;
20480;SDS011;10399;50.754;3.366;2023-07-31T08:40:23;8.55;;;3.92;;
20480;SDS011;10399;50.754;3.366;2023-07-31T08:42:51;11.75;;;4.32;;
20480;SDS011;10399;50.754;3.366;2023-07-31T08:45:20;9.60;;;4.38;;
20480;SDS011;10399;50.754;3.366;2023-07-31T08:47:49;9.98;;;4.13;;
20480;SDS011;10399;50.754;3.366;2023-07-31T08:50:19;10.65;;;4.50;;
20480;SDS011;10399;50.754;3.366;2023-07-31T08:52:48;8.73;;;4.47;;
20480;SDS011;10399;50.754;3.366;2023-07-31T08:55:16;12.13;;;4.97;;
20480;SDS011;10399;50.754;3.366;2023-07-31T08:57:43;15.77;;;5.72;;
20480;SDS011;10399;50.754;3.366;2023-07-31T09:00:13;9.75;;;5.05;;
20480;SDS011;10399;50.754;3.366;2023-07-31T09:02:44;10.10;;;4.85;;
20480;SDS011;10399;50.754;3.366;2023-07-31T09:05:13;10.50;;;5.22;;
20480;SDS011;10399;50.754;3.366;2023-07-31T09:07:41;10.82;;;5.07;;
20480;SDS011;10399;50.754;3.366;2023-07-31T09:10:13;12.95;;;4.93;;
20480;SDS011;10399;50.754;3.366;2023-07-31T09:12:40;13.38;;;4.78;;
20480;SDS011;10399;50.754;3.366;2023-07-31T09:15:09;8.82;;;5.18;;
20480;SDS011;10399;50.754;3.366;2023-07-31T09:18:00;7.43;;;4.55;;
20480;SDS011;10399;50.754;3.366;2023-07-31T09:20:29;10.50;;;5.00;;
20480;SDS011;10399;50.754;3.366;2023-07-31T09:22:56;11.90;;;5.32;;
20480;SDS011;10399;50.754;3.366;2023-07-31T09:25:39;7.53;;;4.85;;
20480;SDS011;10399;50.754;3.366;2023-07-31T09:28:10;9.52;;;4.78;;
20480;SDS011;10399;50.754;3.366;2023-07-31T09:30:49;12.02;;;5.43;;
20480;SDS011;10399;50.754;3.366;2023-07-31T09:33:17;15.57;;;5.50;;
20480;SDS011;10399;50.754;3.366;2023-07-31T09:35:46;12.05;;;5.20;;
20480;SDS011;10399;50.754;3.366;2023-07-31T09:38:15;11.20;;;4.38;;
20480;SDS011;10399;50.754;3.366;2023-07-31T09:40:47;8.48;;;3.97;;
20480;SDS011;10399;50.754;3.366;2023-07-31T09:43:18;10.73;;;4.97;;
20480;SDS011;10399;50.754;3.366;2023-07-31T09:45:47;10.27;;;4.80;;
20480;SDS011;10399;50.754;3.366;2023-07-31T09:48:16;12.73;;;5.18;;
20480;SDS011;10399;50.754;3.366;2023-07-31T09:50:46;8.63;;;4.45;;
20480;SDS011;10399;50.754;3.366;2023-07-31T09:53:15;7.80;;;4.30;;
20480;SDS011;10399;50.754;3.366;2023-07-31T09:55:44;9.32;;;4.38;;
20480;SDS011;10399;50.754;3.366;2023-07-31T09:58:12;10.38;;;4.55;;
20480;SDS011;10399;50.754;3.366;2023-07-31T10:00:39;6.35;;;4.20;;
20480;SDS011;10399;50.754;3.366;2023-07-31T10:03:08;7.72;;;4.00;;
20480;SDS011;10399;50.754;3.366;2023-07-31T10:05:38;9.25;;;4.35;;
20480;SDS011;10399;50.754;3.366;2023-07-31T10:08:18;10.27;;;3.83;;
20480;SDS011;10399;50.754;3.366;2023-07-31T10:10:48;9.18;;;3.90;;
20480;SDS011;10399;50.754;3.366;2023-07-31T10:13:15;12.57;;;3.88;;
20480;SDS011;10399;50.754;3.366;2023-07-31T10:15:43;7.13;;;3.83;;
20480;SDS011;10399;50.754;3.366;2023-07-31T10:18:11;8.40;;;3.92;;
20480;SDS011;10399;50.754;3.366;2023-07-31T10:20:40;9.90;;;4.80;;
20480;SDS011;10399;50.754;3.366;2023-07-31T10:23:08;10.55;;;4.75;;
20480;SDS011;10399;50.754;3.366;2023-07-31T10:25:37;9.07;;;4.00;;
20480;SDS011;10399;50.754;3.366;2023-07-31T10:28:04;8.48;;;3.58;;
20480;SDS011;10399;50.754;3.366;2023-07-31T10:30:32;9.13;;;4.13;;
20480;SDS011;10399;50.754;3.366;2023-07-31T10:33:04;6.80;;;3.53;;
20480;SDS011;10399;50.754;3.366;2023-07-31T10:35:32;8.10;;;4.07;;
20480;SDS011;10399;50.754;3.366;2023-07-31T10:38:10;8.30;;;4.25;;
20480;SDS011;10399;50.754;3.366;2023-07-31T10:40:40;8.57;;;3.80;;
20480;SDS011;10399;50.754;3.366;2023-07-31T10:43:08;12.77;;;4.15;;
20480;SDS011;10399;50.754;3.366;2023-07-31T10:45:39;6.75;;;3.42;;
20480;SDS011;10399;50.754;3.366;2023-07-31T10:48:12;7.82;;;4.38;;
20480;SDS011;10399;50.754;3.366;2023-07-31T10:53:39;7.07;;;4.05;;
20480;SDS011;10399;50.754;3.366;2023-07-31T10:56:07;10.95;;;4.30;;
20480;SDS011;10399;50.754;3.366;2023-07-31T10:58:36;7.05;;;4.03;;
20480;SDS011;10399;50.754;3.366;2023-07-31T11:01:04;7.53;;;4.32;;
20480;SDS011;10399;50.754;3.366;2023-07-31T11:03:49;8.43;;;4.70;;
20480;SDS011;10399;50.754;3.366;2023-07-31T11:06:21;10.52;;;4.32;;
20480;SDS011;10399;50.754;3.366;2023-07-31T11:08:49;9.88;;;4.60;;
20480;SDS011;10399;50.754;3.366;2023-07-31T11:11:18;10.00;;;4.20;;
20480;SDS011;10399;50.754;3.366;2023-07-31T11:13:50;8.50;;;3.92;;
20480;SDS011;10399;50.754;3.366;2023-07-31T11:16:22;9.40;;;4.20;;
20480;SDS011;10399;50.754;3.366;2023-07-31T11:18:51;9.55;;;4.00;;
20480;SDS011;10399;50.754;3.366;2023-07-31T11:21:21;7.32;;;4.32;;
20480;SDS011;10399;50.754;3.366;2023-07-31T11:23:51;8.98;;;4.25;;
20480;SDS011;10399;50.754;3.366;2023-07-31T11:26:20;9.55;;;4.30;;
20480;SDS011;10399;50.754;3.366;2023-07-31T11:28:47;8.65;;;4.55;;
20480;SDS011;10399;50.754;3.366;2023-07-31T11:31:16;10.43;;;4.28;;
20480;SDS011;10399;50.754;3.366;2023-07-31T11:33:45;9.98;;;4.95;;
20480;SDS011;10399;50.754;3.366;2023-07-31T11:36:16;10.60;;;4.35;;
20480;SDS011;10399;50.754;3.366;2023-07-31T11:38:44;10.23;;;4.60;;
20480;SDS011;10399;50.754;3.366;2023-07-31T11:41:13;6.20;;;3.95;;
20480;SDS011;10399;50.754;3.366;2023-07-31T11:43:42;9.70;;;4.05;;
20480;SDS011;10399;50.754;3.366;2023-07-31T11:46:09;8.18;;;3.78;;
20480;SDS011;10399;50.754;3.366;2023-07-31T11:48:37;7.00;;;3.75;;
20480;SDS011;10399;50.754;3.366;2023-07-31T11:51:08;8.48;;;3.80;;
20480;SDS011;10399;50.754;3.366;2023-07-31T11:53:41;9.35;;;3.47;;
20480;SDS011;10399;50.754;3.366;2023-07-31T11:56:13;6.82;;;3.28;;
20480;SDS011;10399;50.754;3.366;2023-07-31T11:58:43;9.05;;;3.67;;
20480;SDS011;10399;50.754;3.366;2023-07-31T12:01:14;9.15;;;3.67;;
20480;SDS011;10399;50.754;3.366;2023-07-31T12:03:48;7.10;;;2.63;;
20480;SDS011;10399;50.754;3.366;2023-07-31T12:06:16;4.93;;;2.40;;
20480;SDS011;10399;50.754;3.366;2023-07-31T12:08:44;6.43;;;2.92;;
20480;SDS011;10399;50.754;3.366;2023-07-31T12:11:12;7.75;;;3.25;;
20480;SDS011;10399;50.754;3.366;2023-07-31T12:13:44;7.22;;;3.25;;
20480;SDS011;10399;50.754;3.366;2023-07-31T12:16:11;6.78;;;3.08;;
20480;SDS011;10399;50.754;3.366;2023-07-31T12:18:39;6.25;;;3.25;;
20480;SDS011;10399;50.754;3.366;2023-07-31T12:21:07;11.73;;;3.40;;
20480;SDS011;10399;50.754;3.366;2023-07-31T12:23:37;9.88;;;3.53;;
20480;SDS011;10399;50.754;3.366;2023-07-31T12:26:05;7.57;;;3.63;;
20480;SDS011;10399;50.754;3.366;2023-07-31T12:28:35;9.88;;;3.90;;
20480;SDS011;10399;50.754;3.366;2023-07-31T12:31:14;7.22;;;3.10;;
20480;SDS011;10399;50.754;3.366;2023-07-31T12:33:46;6.25;;;3.58;;
20480;SDS011;10399;50.754;3.366;2023-07-31T12:36:18;8.48;;;3.50;;
20480;SDS011;10399;50.754;3.366;2023-07-31T12:38:51;7.88;;;3.33;;
20480;SDS011;10399;50.754;3.366;2023-07-31T12:41:19;4.38;;;2.05;;
20480;SDS011;10399;50.754;3.366;2023-07-31T12:43:46;4.53;;;2.50;;
20480;SDS011;10399;50.754;3.366;2023-07-31T12:46:14;7.05;;;2.83;;
20480;SDS011;10399;50.754;3.366;2023-07-31T12:48:42;7.05;;;3.40;;
20480;SDS011;10399;50.754;3.366;2023-07-31T12:51:09;6.70;;;3.30;;
20480;SDS011;10399;50.754;3.366;2023-07-31T12:53:36;7.10;;;3.63;;
20480;SDS011;10399;50.754;3.366;2023-07-31T12:56:03;11.15;;;3.28;;
20480;SDS011;10399;50.754;3.366;2023-07-31T12:58:31;9.30;;;3.75;;
20480;SDS011;10399;50.754;3.366;2023-07-31T13:00:58;10.88;;;3.08;;
20480;SDS011;10399;50.754;3.366;2023-07-31T13:03:27;8.63;;;3.92;;
20480;SDS011;10399;50.754;3.366;2023-07-31T13:05:56;9.75;;;4.43;;
20480;SDS011;10399;50.754;3.366;2023-07-31T13:08:24;8.23;;;3.53;;
20480;SDS011;10399;50.754;3.366;2023-07-31T13:10:52;14.45;;;4.65;;
20480;SDS011;10399;50.754;3.366;2023-07-31T13:13:20;9.73;;;4.10;;
20480;SDS011;10399;50.754;3.366;2023-07-31T13:15:47;10.77;;;5.47;;
20480;SDS011;10399;50.754;3.366;2023-07-31T13:18:15;11.25;;;5.00;;
20480;SDS011;10399;50.754;3.366;2023-07-31T13:20:43;12.68;;;5.03;;
20480;SDS011;10399;50.754;3.366;2023-07-31T13:23:10;9.55;;;4.70;;
20480;SDS011;10399;50.754;3.366;2023-07-31T13:25:37;12.18;;;5.05;;
20480;SDS011;10399;50.754;3.366;2023-07-31T13:28:04;13.57;;;5.75;;
20480;SDS011;10399;50.754;3.366;2023-07-31T13:30:31;11.38;;;5.28;;
20480;SDS011;10399;50.754;3.366;2023-07-31T13:32:59;13.30;;;5.15;;
20480;SDS011;10399;50.754;3.366;2023-07-31T13:35:27;11.43;;;5.18;;
20480;SDS011;10399;50.754;3.366;2023-07-31T13:37:57;11.57;;;5.55;;
20480;SDS011;10399;50.754;3.366;2023-07-31T13:40:25;8.27;;;3.85;;
20480;SDS011;10399;50.754;3.366;2023-07-31T13:42:53;10.23;;;5.00;;
20480;SDS011;10399;50.754;3.366;2023-07-31T13:45:21;9.25;;;4.80;;
20480;SDS011;10399;50.754;3.366;2023-07-31T13:47:49;10.20;;;4.40;;
20480;SDS011;10399;50.754;3.366;2023-07-31T13:50:17;9.50;;;3.95;;
20480;SDS011;10399;50.754;3.366;2023-07-31T13:52:47;6.03;;;3.42;;
20480;SDS011;10399;50.754;3.366;2023-07-31T13:55:14;6.22;;;3.60;;
20480;SDS011;10399;50.754;3.366;2023-07-31T13:57:45;4.78;;;3.05;;
20480;SDS011;10399;50.754;3.366;2023-07-31T14:00:12;6.75;;;2.95;;
20480;SDS011;10399;50.754;3.366;2023-07-31T14:02:40;3.85;;;2.25;;
20480;SDS011;10399;50.754;3.366;2023-07-31T14:05:08;5.60;;;2.22;;
20480;SDS011;10399;50.754;3.366;2023-07-31T14:07:37;3.90;;;2.10;;
20480;SDS011;10399;50.754;3.366;2023-07-31T14:10:04;3.40;;;2.10;;
20480;SDS011;10399;50.754;3.366;2023-07-31T14:12:32;4.57;;;2.05;;
20480;SDS011;10399;50.754;3.366;2023-07-31T14:15:08;4.68;;;2.40;;
20480;SDS011;10399;50.754;3.366;2023-07-31T14:17:36;4.10;;;1.88;;
20480;SDS011;10399;50.754;3.366;2023-07-31T14:20:05;3.30;;;2.22;;
20480;SDS011;10399;50.754;3.366;2023-07-31T14:22:35;4.60;;;2.10;;
20480;SDS011;10399;50.754;3.366;2023-07-31T14:25:03;3.45;;;1.65;;
20480;SDS011;10399;50.754;3.366;2023-07-31T14:27:31;3.83;;;2.03;;
20480;SDS011;10399;50.754;3.366;2023-07-31T14:30:00;2.20;;;1.90;;
20480;SDS011;10399;50.754;3.366;2023-07-31T14:32:27;3.58;;;2.17;;
20480;SDS011;10399;50.754;3.366;2023-07-31T14:34:54;2.85;;;2.08;;
20480;SDS011;10399;50.754;3.366;2023-07-31T14:37:22;5.53;;;2.20;;
20480;SDS011;10399;50.754;3.366;2023-07-31T14:39:52;4.22;;;2.38;;
20480;SDS011;10399;50.754;3.366;2023-07-31T14:42:22;5.43;;;1.90;;
20480;SDS011;10399;50.754;3.366;2023-07-31T14:44:50;3.03;;;2.10;;
20480;SDS011;10399;50.754;3.366;2023-07-31T14:47:19;4.50;;;2.25;;
20480;SDS011;10399;50.754;3.366;2023-07-31T14:49:47;3.75;;;1.90;;
20480;SDS011;10399;50.754;3.366;2023-07-31T14:52:14;2.95;;;1.85;;
20480;SDS011;10399;50.754;3.366;2023-07-31T14:54:42;2.40;;;1.42;;
20480;SDS011;10399;50.754;3.366;2023-07-31T14:57:10;2.42;;;1.77;;